首页
METAR-TAF:

METAR-TAF

机场 :

Chapleau, 安大略省, 加拿大

纬度: 47-49N, 经度: 083-21W, 海拔: 447米

当前天气观测

该预报发布于9小时和14分钟前的01:00 UTC
风速2节,风向多变
温度 14°C
湿度 94%
气压 1013 hPa
能見度: 19.3公里
阴天层高于1300英尺

METAR: CYLD 010100Z VRB02KT 12SM OVC013 14/13 A2990 RMK SC8 BR LAST STFD OBS/NEXT 011000UTC SLP136 DENSITY ALT 1700FT

时间: 06:14 (10:14 UTC)

预报

该预报发布于14小时和36分钟前的19:38 UTC
预报有效从31日的 20点(UTC)到 01日的 01点(UTC)
风速3节,风向多变
能見度: 10公里
阴天层高于2500英尺
短暂存在
从 31日的 20点(UTC)到 01日的 01点(UTC)
能見度: 6.4公里
阴天层高于700英尺
小雨, 轻雾
几率 30%
从 31日的 21点(UTC)到 31日的 23点(UTC)
风速15节,风向多变,有时为25节阵风
能見度: 3.2公里
多云层高于800英尺
阴天层高于5000英尺, 积雨云.
雷暴, 雨, 轻雾

TAF: CYLD 311938Z 3120/0101 VRB03KT P6SM OVC025 TEMPO 3120/0101 4SM -RA BR OVC007 PROB30 3121/3123 VRB15G25KT 2SM TSRA BR BKN008 OVC050CB RMK NXT FCST WILL BE ISSUED AT 011145Z

超过4000个机场的气象观测和天气预报(METAR&TAF报告)。

可查询的气象台以黄色和红色小点在地图上表示。

将鼠标移到小点上方,可查看气象台名称。

然后点击查看天气观测和预报。

如需切换地图:点击带黑十字的绿色按钮放大地图;点击带横线的绿色按钮缩小地图;或者点击绿色箭头查看邻近地区的地图。


METAR-TAF: